createdAt,value
2023-03-28T00:03:39.447Z,100601.75
2023-03-28T00:08:45.821Z,100601.06
2023-03-28T00:13:48.761Z,100613.25
2023-03-28T00:18:51.563Z,100612.72
2023-03-28T00:23:56.175Z,100615.69
2023-03-28T00:28:58.927Z,100627.69
2023-03-28T00:34:01.765Z,100616.41
2023-03-28T00:39:06.908Z,100617.59
2023-03-28T00:44:43.213Z,100615.22
2023-03-28T00:49:46.657Z,100614.56
2023-03-28T00:54:51.190Z,100616.16
2023-03-28T00:59:53.962Z,100617.34
2023-03-28T01:04:59.356Z,100628.16
2023-03-28T01:10:05.096Z,100625.78
2023-03-28T01:15:09.772Z,100629.50
2023-03-28T01:20:35.913Z,100626.94
2023-03-28T01:26:21.003Z,100625.50
2023-03-28T01:31:33.871Z,100635.25
2023-03-28T01:37:11.935Z,100628.41
2023-03-28T01:42:24.613Z,100634.78
2023-03-28T01:47:29.257Z,100652.75
2023-03-28T01:52:36.116Z,100652.13
2023-03-28T01:57:42.240Z,100647.72
2023-03-28T02:02:49.345Z,100653.25
2023-03-28T02:08:11.828Z,100658.59
2023-03-28T02:13:19.742Z,100664.97
2023-03-28T02:18:38.138Z,100672.16
2023-03-28T02:24:02.714Z,100679.41
2023-03-28T02:29:23.900Z,100678.66
2023-03-28T02:34:56.120Z,100687.53
2023-03-28T02:40:07.223Z,100682.28
2023-03-28T02:45:35.542Z,100689.63
2023-03-28T02:50:40.980Z,100682.66
2023-03-28T02:55:47.273Z,100679.25
2023-03-28T03:01:14.697Z,100690.91
2023-03-28T03:06:19.334Z,100698.06
2023-03-28T03:11:25.018Z,100707.81
2023-03-28T03:16:29.157Z,100715.13
2023-03-28T03:21:33.518Z,100716.84
2023-03-28T03:26:37.701Z,100723.91
2023-03-28T03:31:41.924Z,100723.84
2023-03-28T03:37:17.943Z,100734.56
2023-03-28T03:42:22.272Z,100739.03
2023-03-28T03:47:25.205Z,100751.56
2023-03-28T03:52:28.009Z,100753.34
2023-03-28T03:57:32.367Z,100771.19
2023-03-28T04:02:37.827Z,100767.78
2023-03-28T04:07:42.192Z,100778.38
2023-03-28T04:12:54.342Z,100776.00
2023-03-28T04:17:57.277Z,100789.38
2023-03-28T04:23:01.851Z,100805.50
2023-03-28T04:28:09.277Z,100815.25
2023-03-28T04:33:18.961Z,100824.13
2023-03-28T04:38:23.677Z,100834.94
2023-03-28T04:43:33.997Z,100839.50
2023-03-28T04:48:36.992Z,100849.25
2023-03-28T04:53:40.348Z,100858.22
2023-03-28T04:59:04.446Z,100865.56
2023-03-28T05:04:07.727Z,100879.78
2023-03-28T05:09:12.312Z,100884.47
2023-03-28T05:14:16.523Z,100905.00
2023-03-28T05:19:25.239Z,100906.81
2023-03-28T05:24:44.241Z,100912.25
2023-03-28T05:29:53.647Z,100924.81
2023-03-28T05:34:56.899Z,100933.72
2023-03-28T05:40:06.377Z,100939.16
2023-03-28T05:45:12.623Z,100945.28
2023-03-28T05:50:35.697Z,100958.63
2023-03-28T05:55:42.367Z,100963.97
2023-03-28T06:00:46.614Z,100968.47
2023-03-28T06:05:49.646Z,100979.25
2023-03-28T06:11:03.008Z,100984.50
2023-03-28T06:16:14.385Z,100993.41
2023-03-28T06:21:17.516Z,101000.56
2023-03-28T06:26:21.887Z,101005.75
2023-03-28T06:31:26.159Z,101020.00
2023-03-28T06:36:28.998Z,101016.44
2023-03-28T06:41:32.215Z,101027.06
2023-03-28T06:46:36.552Z,101037.75
2023-03-28T06:51:40.310Z,101033.25
2023-03-28T06:56:43.529Z,101047.41
2023-03-28T07:01:47.873Z,101058.00
2023-03-28T07:06:53.341Z,101066.03
2023-03-28T07:11:56.447Z,101071.22
2023-03-28T07:17:01.079Z,101073.63
2023-03-28T07:22:04.139Z,101081.72
2023-03-28T07:27:15.423Z,101089.78
2023-03-28T07:32:22.298Z,101107.84
2023-03-28T07:37:25.336Z,101113.66
2023-03-28T07:42:46.042Z,101110.97
2023-03-28T07:47:50.370Z,101116.03
2023-03-28T07:52:57.580Z,101105.34
2023-03-28T07:58:02.458Z,101115.69
2023-03-28T08:03:09.644Z,101119.44
2023-03-28T08:08:12.828Z,101129.09
2023-03-28T08:13:15.997Z,101137.44
2023-03-28T08:18:21.822Z,101135.00
2023-03-28T08:23:26.391Z,101134.19
2023-03-28T08:28:54.879Z,101144.16
2023-03-28T08:33:59.374Z,101135.16
2023-03-28T08:39:10.001Z,101144.84
2023-03-28T08:44:26.053Z,101150.88
2023-03-28T08:49:32.421Z,101145.97
2023-03-28T08:54:37.103Z,101157.53
2023-03-28T08:59:41.819Z,101168.41
2023-03-28T09:04:46.050Z,101172.63
2023-03-28T09:09:59.026Z,101187.75
2023-03-28T09:15:34.315Z,101182.22
2023-03-28T09:20:43.240Z,101182.13
2023-03-28T09:26:09.481Z,101178.59
2023-03-28T09:31:14.411Z,101182.56
2023-03-28T09:36:20.213Z,101186.53
2023-03-28T09:41:27.146Z,101185.69
2023-03-28T09:46:48.645Z,101185.41
2023-03-28T09:52:17.473Z,101180.91
2023-03-28T09:57:20.714Z,101186.16
2023-03-28T10:02:26.989Z,101181.34
2023-03-28T10:07:34.775Z,101189.28
2023-03-28T10:12:48.924Z,101191.94
2023-03-28T10:17:51.972Z,101184.78
2023-03-28T10:23:04.363Z,101188.50
2023-03-28T10:28:14.116Z,101192.38
2023-03-28T10:33:24.655Z,101201.47
2023-03-28T10:38:48.429Z,101192.47
2023-03-28T10:44:18.746Z,101195.25
2023-03-28T10:49:31.960Z,101186.44
2023-03-28T10:54:51.039Z,101192.31
2023-03-28T11:00:10.682Z,101184.16
2023-03-28T11:05:23.112Z,101171.19
2023-03-28T11:10:31.932Z,101193.91
2023-03-28T11:15:43.180Z,101191.25
2023-03-28T11:21:02.175Z,101196.97
2023-03-28T11:26:09.620Z,101201.38
2023-03-28T11:31:46.678Z,101194.13
2023-03-28T11:36:53.423Z,101193.03
2023-03-28T11:41:59.565Z,101187.75
2023-03-28T11:47:15.768Z,101188.44
2023-03-28T11:52:22.436Z,101184.81
2023-03-28T11:57:29.251Z,101185.50
2023-03-28T12:02:42.171Z,101177.31
2023-03-28T12:07:48.250Z,101164.94
2023-03-28T12:13:06.883Z,101166.50
2023-03-28T12:18:16.119Z,101157.41
2023-03-28T12:23:22.329Z,101164.16
2023-03-28T12:29:03.179Z,101157.47
2023-03-28T12:34:09.301Z,101150.22
2023-03-28T12:39:38.336Z,101152.44
2023-03-28T12:44:53.723Z,101150.31
2023-03-28T12:49:57.916Z,101156.38
2023-03-28T12:55:02.086Z,101148.84
2023-03-28T13:00:26.748Z,101153.81
2023-03-28T13:05:57.258Z,101165.50
2023-03-28T13:11:07.881Z,101157.84
2023-03-28T13:16:15.901Z,101157.41
2023-03-28T13:21:42.470Z,101163.88
2023-03-28T13:26:54.672Z,101160.41
2023-03-28T13:32:03.222Z,101160.91
2023-03-28T13:37:22.666Z,101158.34
2023-03-28T13:42:30.599Z,101154.78
2023-03-28T13:47:38.317Z,101158.81
2023-03-28T13:52:41.276Z,101145.22
2023-03-28T13:57:44.199Z,101141.47
2023-03-28T14:02:49.002Z,101130.09
2023-03-28T14:07:52.582Z,101136.00
2023-03-28T14:12:55.941Z,101140.69
2023-03-28T14:18:00.182Z,101135.69
2023-03-28T14:23:03.181Z,101129.94
2023-03-28T14:28:09.527Z,101133.81
2023-03-28T14:33:20.269Z,101130.81
2023-03-28T14:38:29.145Z,101141.88
2023-03-28T14:43:32.217Z,101131.50
2023-03-28T14:48:36.813Z,101132.19
2023-03-28T14:53:42.612Z,101144.69
2023-03-28T14:58:45.466Z,101148.88
2023-03-28T15:03:50.695Z,101144.66
2023-03-28T15:08:55.897Z,101150.38
2023-03-28T15:14:01.008Z,101140.91
2023-03-28T15:19:07.027Z,101136.03
2023-03-28T15:24:11.505Z,101137.75
2023-03-28T15:29:16.392Z,101135.06
2023-03-28T15:34:22.101Z,101141.09
2023-03-28T15:39:25.826Z,101143.00
2023-03-28T15:44:30.294Z,101134.28
2023-03-28T15:49:37.036Z,101132.84
2023-03-28T15:54:42.899Z,101129.88
2023-03-28T15:59:48.388Z,101127.97
2023-03-28T16:05:00.304Z,101128.63
2023-03-28T16:10:03.568Z,101122.22
2023-03-28T16:15:11.609Z,101107.34
2023-03-28T16:20:25.247Z,101111.78
2023-03-28T16:25:28.674Z,101101.47
2023-03-28T16:30:33.485Z,101106.09
2023-03-28T16:35:37.660Z,101101.56
2023-03-28T16:40:40.714Z,101096.69
2023-03-28T16:45:43.616Z,101099.06
2023-03-28T16:50:55.481Z,101094.66
2023-03-28T16:55:58.539Z,101104.56
2023-03-28T17:01:05.006Z,101091.03
2023-03-28T17:06:10.162Z,101095.22
2023-03-28T17:11:13.516Z,101089.50
2023-03-28T17:16:16.565Z,101088.13
2023-03-28T17:21:20.860Z,101080.59
2023-03-28T17:26:23.638Z,101073.16
2023-03-28T17:31:26.638Z,101068.19
2023-03-28T17:36:30.970Z,101061.72
2023-03-28T17:41:33.860Z,101060.22
2023-03-28T17:46:37.514Z,101064.06
2023-03-28T17:51:41.750Z,101070.72
2023-03-28T17:56:44.708Z,101066.31
2023-03-28T18:01:47.924Z,101056.72
2023-03-28T18:06:53.465Z,101060.28
2023-03-28T18:11:56.490Z,101072.84
2023-03-28T18:16:59.441Z,101064.03
2023-03-28T18:22:03.648Z,101068.66
2023-03-28T18:27:06.573Z,101062.63
2023-03-28T18:32:09.366Z,101051.88
2023-03-28T18:37:13.499Z,101068.94
2023-03-28T18:42:16.389Z,101064.66
2023-03-28T18:47:19.228Z,101069.75
2023-03-28T18:52:23.441Z,101068.09
2023-03-28T18:57:27.660Z,101069.91
2023-03-28T19:02:30.672Z,101065.41
2023-03-28T19:07:34.997Z,101066.25
2023-03-28T19:12:37.787Z,101063.59
2023-03-28T19:17:40.824Z,101064.66
2023-03-28T19:22:45.035Z,101049.41
2023-03-28T19:27:51.902Z,101043.06
2023-03-28T19:32:54.781Z,101030.41
2023-03-28T19:37:59.176Z,101026.00
2023-03-28T19:43:02.014Z,101022.78
2023-03-28T19:48:04.905Z,101021.69
2023-03-28T19:53:09.185Z,101015.19
2023-03-28T19:58:12.273Z,100997.31
2023-03-28T20:03:15.106Z,100995.50
2023-03-28T20:08:19.865Z,100979.50
2023-03-28T20:13:23.051Z,100979.59
2023-03-28T20:18:26.135Z,100989.25
2023-03-28T20:23:31.917Z,100990.22
2023-03-28T20:28:34.696Z,100984.84
2023-03-28T20:33:38.331Z,100980.47
2023-03-28T20:38:42.549Z,100971.53
2023-03-28T20:43:47.754Z,100974.34
2023-03-28T20:48:53.255Z,100979.81
2023-03-28T20:53:58.594Z,100973.47
2023-03-28T20:59:01.375Z,100969.09
2023-03-28T21:04:04.451Z,100975.19
2023-03-28T21:09:09.838Z,100970.81
2023-03-28T21:14:13.438Z,100961.78
2023-03-28T21:19:16.557Z,100962.63
2023-03-28T21:24:20.991Z,100958.22
2023-03-28T21:29:24.483Z,100939.44
2023-03-28T21:34:33.487Z,100958.13
2023-03-28T21:39:37.697Z,100942.97
2023-03-28T21:44:40.501Z,100938.59
2023-03-28T21:49:45.910Z,100943.72
2023-03-28T21:54:50.040Z,100942.75
2023-03-28T21:59:52.828Z,100941.91
2023-03-28T22:04:55.669Z,100935.03
2023-03-28T22:10:01.133Z,100928.94
2023-03-28T22:15:04.525Z,100925.38
2023-03-28T22:20:08.605Z,100918.28
2023-03-28T22:25:13.566Z,100908.81
2023-03-28T22:30:16.500Z,100905.28
2023-03-28T22:35:19.324Z,100907.97
2023-03-28T22:40:23.545Z,100908.09
2023-03-28T22:45:26.988Z,100908.19
2023-03-28T22:50:29.785Z,100900.13
2023-03-28T22:55:33.906Z,100902.03
2023-03-28T23:00:37.432Z,100897.66
2023-03-28T23:05:40.212Z,100893.34
2023-03-28T23:10:44.356Z,100878.53
2023-03-28T23:15:47.114Z,100878.53
2023-03-28T23:20:50.966Z,100868.44
2023-03-28T23:25:55.165Z,100870.34
2023-03-28T23:30:57.932Z,100863.78
2023-03-28T23:36:00.970Z,100866.03
2023-03-28T23:41:06.464Z,100852.69
2023-03-28T23:46:09.361Z,100836.28
2023-03-28T23:51:12.185Z,100833.78
2023-03-28T23:56:16.458Z,100835.16
